createdAt,value
2022-08-26T00:00:12.662Z,50.885574
2022-08-26T00:01:12.642Z,50.885620
2022-08-26T00:02:12.820Z,50.885574
2022-08-26T00:03:12.666Z,50.885590
2022-08-26T00:04:12.780Z,50.885593
2022-08-26T00:05:12.620Z,50.885563
2022-08-26T00:06:12.621Z,50.885593
2022-08-26T00:07:12.618Z,50.885540
2022-08-26T00:08:13.100Z,50.885548
2022-08-26T00:09:12.641Z,50.885559
2022-08-26T00:10:12.610Z,50.885632
2022-08-26T00:11:12.582Z,50.885582
2022-08-26T00:12:12.671Z,50.885567
2022-08-26T00:13:12.568Z,50.885517
2022-08-26T00:14:12.579Z,50.885551
2022-08-26T00:15:12.569Z,50.885571
2022-08-26T00:16:12.622Z,50.885586
2022-08-26T00:17:12.568Z,50.885559
2022-08-26T00:18:21.763Z,50.885586
2022-08-26T00:19:12.543Z,50.885574
2022-08-26T00:20:12.567Z,50.885563
2022-08-26T00:21:12.523Z,50.885559
2022-08-26T00:22:12.521Z,50.885582
2022-08-26T00:23:13.529Z,50.885574
2022-08-26T00:24:12.514Z,50.885578
2022-08-26T00:25:12.544Z,50.885666
2022-08-26T00:26:12.552Z,50.885586
2022-08-26T00:27:12.497Z,50.885544
2022-08-26T00:28:12.530Z,50.885555
2022-08-26T00:29:12.557Z,50.885544
2022-08-26T00:30:12.484Z,50.885624
2022-08-26T00:31:12.518Z,50.885559
2022-08-26T00:32:12.468Z,50.885529
2022-08-26T00:33:12.467Z,50.885521
2022-08-26T00:34:12.463Z,50.885544
2022-08-26T00:35:12.447Z,50.885536
2022-08-26T00:36:14.422Z,50.885540
2022-08-26T00:37:16.138Z,50.885544
2022-08-26T00:38:13.433Z,50.885525
2022-08-26T00:39:12.442Z,50.885567
2022-08-26T00:40:12.465Z,50.885555
2022-08-26T00:41:12.485Z,50.885586
2022-08-26T00:42:12.418Z,50.885540
2022-08-26T00:43:12.426Z,50.885498
2022-08-26T00:44:12.414Z,50.885456
2022-08-26T00:45:12.410Z,50.885502
2022-08-26T00:46:13.365Z,50.885551
2022-08-26T00:47:12.457Z,50.885597
2022-08-26T00:48:12.393Z,50.885612
2022-08-26T00:49:12.541Z,50.885555
2022-08-26T00:50:12.385Z,50.885529
2022-08-26T00:51:12.458Z,50.885548
2022-08-26T00:52:13.181Z,50.885529
2022-08-26T00:53:12.366Z,50.885498
2022-08-26T00:54:12.358Z,50.885525
2022-08-26T00:55:12.337Z,50.885571
2022-08-26T00:56:12.355Z,50.885609
2022-08-26T00:57:16.401Z,50.885605
2022-08-26T00:58:12.326Z,50.885490
2022-08-26T00:59:12.333Z,50.885452
2022-08-26T01:00:12.315Z,50.885471
2022-08-26T01:01:12.323Z,50.885498
2022-08-26T01:02:20.712Z,50.885532
2022-08-26T01:03:13.321Z,50.885582
2022-08-26T01:04:12.287Z,50.885597
2022-08-26T01:05:12.290Z,50.885635
2022-08-26T01:06:13.065Z,50.885551
2022-08-26T01:07:12.286Z,50.885647
2022-08-26T01:08:12.300Z,50.885597
2022-08-26T01:09:12.270Z,50.885643
2022-08-26T01:10:12.257Z,50.885612
2022-08-26T01:11:12.257Z,50.885612
2022-08-26T01:12:12.249Z,50.885559
2022-08-26T01:13:12.261Z,50.885639
2022-08-26T01:14:12.825Z,50.885647
2022-08-26T01:15:12.631Z,50.885563
2022-08-26T01:16:12.237Z,50.885551
2022-08-26T01:17:12.218Z,50.885609
2022-08-26T01:18:12.238Z,50.885574
2022-08-26T01:19:12.236Z,50.885437
2022-08-26T01:20:12.215Z,50.885494
2022-08-26T01:21:12.209Z,50.885578
2022-08-26T01:22:12.195Z,50.885651
2022-08-26T01:23:12.206Z,50.885620
2022-08-26T01:24:12.197Z,50.885559
2022-08-26T01:25:12.205Z,50.885551
2022-08-26T01:26:19.435Z,50.885544
2022-08-26T01:27:13.162Z,50.885582
2022-08-26T01:28:12.148Z,50.885525
2022-08-26T01:29:12.165Z,50.885597
2022-08-26T01:30:12.155Z,50.885666
2022-08-26T01:31:12.187Z,50.885715
2022-08-26T01:32:12.138Z,50.885670
2022-08-26T01:33:12.136Z,50.885502
2022-08-26T01:34:12.160Z,50.885483
2022-08-26T01:35:12.118Z,50.885609
2022-08-26T01:36:12.136Z,50.885605
2022-08-26T01:37:15.491Z,50.885662
2022-08-26T01:38:12.114Z,50.885540
2022-08-26T01:39:12.092Z,50.885597
2022-08-26T01:40:12.162Z,50.885586
2022-08-26T01:41:19.522Z,50.885555
2022-08-26T01:42:12.086Z,50.885376
2022-08-26T01:43:12.794Z,50.884895
2022-08-26T01:44:12.055Z,50.884850
2022-08-26T01:45:12.093Z,50.884979
2022-08-26T01:46:12.120Z,50.885250
2022-08-26T01:47:12.187Z,50.885338
2022-08-26T01:48:12.043Z,50.885441
2022-08-26T01:49:12.039Z,50.885525
2022-08-26T01:50:13.013Z,50.885380
2022-08-26T01:51:12.014Z,50.885307
2022-08-26T01:52:12.054Z,50.885101
2022-08-26T01:53:12.226Z,50.885071
2022-08-26T01:54:13.785Z,50.885151
2022-08-26T01:55:12.077Z,50.885056
2022-08-26T01:56:12.002Z,50.885197
2022-08-26T01:57:12.002Z,50.885826
2022-08-26T01:58:11.990Z,50.885120
2022-08-26T01:59:12.255Z,50.885338
2022-08-26T02:00:11.969Z,50.885426
2022-08-26T02:01:11.987Z,50.885403
2022-08-26T02:02:11.940Z,50.885410
2022-08-26T02:03:12.060Z,50.885494
2022-08-26T02:04:11.962Z,50.885681
2022-08-26T02:05:11.922Z,50.885735
2022-08-26T02:06:11.934Z,50.885586
2022-08-26T02:07:12.924Z,50.885468
2022-08-26T02:08:11.932Z,50.885670
2022-08-26T02:09:11.933Z,50.885597
2022-08-26T02:10:11.914Z,50.885674
2022-08-26T02:11:11.902Z,50.885670
2022-08-26T02:12:11.897Z,50.885601
2022-08-26T02:13:11.894Z,50.885647
2022-08-26T02:14:11.900Z,50.885521
2022-08-26T02:15:12.877Z,50.885586
2022-08-26T02:16:11.935Z,50.885551
2022-08-26T02:17:11.872Z,50.885590
2022-08-26T02:18:14.016Z,50.885544
2022-08-26T02:19:11.853Z,50.885483
2022-08-26T02:20:13.321Z,50.885632
2022-08-26T02:21:11.857Z,50.885525
2022-08-26T02:22:11.839Z,50.885555
2022-08-26T02:23:11.825Z,50.885536
2022-08-26T02:24:11.834Z,50.885628
2022-08-26T02:25:11.844Z,50.885612
2022-08-26T02:26:11.822Z,50.885643
2022-08-26T02:27:11.822Z,50.885506
2022-08-26T02:28:11.815Z,50.885490
2022-08-26T02:29:11.807Z,50.885448
2022-08-26T02:30:11.793Z,50.885441
2022-08-26T02:31:11.872Z,50.885529
2022-08-26T02:32:11.780Z,50.885712
2022-08-26T02:33:11.779Z,50.885563
2022-08-26T02:34:11.783Z,50.885536
2022-08-26T02:35:11.780Z,50.885693
2022-08-26T02:36:12.175Z,50.885590
2022-08-26T02:37:11.745Z,50.885529
2022-08-26T02:38:11.742Z,50.885605
2022-08-26T02:39:11.738Z,50.885635
2022-08-26T02:40:11.783Z,50.885567
2022-08-26T02:41:11.726Z,50.885540
2022-08-26T02:42:11.753Z,50.885548
2022-08-26T02:43:11.707Z,50.885616
2022-08-26T02:44:11.700Z,50.885624
2022-08-26T02:45:11.703Z,50.885506
2022-08-26T02:46:11.751Z,50.885563
2022-08-26T02:47:12.872Z,50.885521
2022-08-26T02:48:11.690Z,50.885456
2022-08-26T02:49:11.676Z,50.885494
2022-08-26T02:50:11.676Z,50.885551
2022-08-26T02:51:11.661Z,50.885616
2022-08-26T02:52:11.683Z,50.885475
2022-08-26T02:53:11.779Z,50.885506
2022-08-26T02:54:11.646Z,50.885574
2022-08-26T02:55:11.642Z,50.885620
2022-08-26T02:56:11.647Z,50.885567
2022-08-26T02:57:11.689Z,50.885597
2022-08-26T02:58:11.655Z,50.885532
2022-08-26T02:59:11.624Z,50.885544
2022-08-26T03:00:11.627Z,50.885464
2022-08-26T03:01:11.680Z,50.885536
2022-08-26T03:02:11.635Z,50.885422
2022-08-26T03:03:11.611Z,50.885468
2022-08-26T03:04:11.627Z,50.885563
2022-08-26T03:05:11.593Z,50.885490
2022-08-26T03:06:11.583Z,50.885403
2022-08-26T03:07:11.593Z,50.885490
2022-08-26T03:08:11.572Z,50.885582
2022-08-26T03:09:15.975Z,50.885422
2022-08-26T03:10:12.547Z,50.885403
2022-08-26T03:11:11.562Z,50.885616
2022-08-26T03:12:11.548Z,50.885597
2022-08-26T03:13:11.584Z,50.885525
2022-08-26T03:14:11.546Z,50.885448
2022-08-26T03:15:17.423Z,50.885548
2022-08-26T03:16:11.599Z,50.885643
2022-08-26T03:17:11.528Z,50.885578
2022-08-26T03:18:11.505Z,50.885513
2022-08-26T03:19:11.505Z,50.885422
2022-08-26T03:20:11.511Z,50.885509
2022-08-26T03:21:11.501Z,50.885635
2022-08-26T03:22:11.488Z,50.885559
2022-08-26T03:23:11.493Z,50.885582
2022-08-26T03:24:11.479Z,50.885571
2022-08-26T03:25:11.487Z,50.885521
2022-08-26T03:26:11.495Z,50.885582
2022-08-26T03:27:11.503Z,50.885616
2022-08-26T03:28:11.457Z,50.885635
2022-08-26T03:29:11.431Z,50.885635
2022-08-26T03:30:11.715Z,50.885635
2022-08-26T03:31:11.503Z,50.885593
2022-08-26T03:32:11.440Z,50.885529
2022-08-26T03:33:11.402Z,50.885609
2022-08-26T03:34:11.453Z,50.885590
2022-08-26T03:35:11.415Z,50.885628
2022-08-26T03:36:11.442Z,50.885559
2022-08-26T03:37:11.439Z,50.885532
2022-08-26T03:38:11.400Z,50.885574
2022-08-26T03:39:11.399Z,50.885597
2022-08-26T03:40:11.449Z,50.885635
2022-08-26T03:41:11.386Z,50.885502
2022-08-26T03:42:11.483Z,50.885506
2022-08-26T03:43:11.386Z,50.885563
2022-08-26T03:44:11.378Z,50.885521
2022-08-26T03:45:11.353Z,50.885475
2022-08-26T03:46:11.358Z,50.885567
2022-08-26T03:47:11.348Z,50.885555
2022-08-26T03:48:11.373Z,50.885582
2022-08-26T03:49:11.361Z,50.885540
2022-08-26T03:50:11.328Z,50.885571
2022-08-26T03:51:11.327Z,50.885601
2022-08-26T03:52:11.859Z,50.885567
2022-08-26T03:53:12.844Z,50.885563
2022-08-26T03:54:11.313Z,50.885586
2022-08-26T03:55:11.293Z,50.885677
2022-08-26T03:56:11.304Z,50.885582
2022-08-26T03:57:11.294Z,50.885654
2022-08-26T03:58:11.292Z,50.885635
2022-08-26T03:59:11.290Z,50.885563
2022-08-26T04:00:11.281Z,50.885609
2022-08-26T04:01:11.266Z,50.885643
2022-08-26T04:02:11.460Z,50.885620
2022-08-26T04:03:14.721Z,50.885681
2022-08-26T04:04:15.527Z,50.885586
2022-08-26T04:05:11.250Z,50.885483
2022-08-26T04:06:11.223Z,50.885593
2022-08-26T04:07:11.240Z,50.885628
2022-08-26T04:08:11.237Z,50.885506
2022-08-26T04:09:11.217Z,50.885464
2022-08-26T04:10:11.321Z,50.885563
2022-08-26T04:11:11.209Z,50.885635
2022-08-26T04:12:11.208Z,50.885689
2022-08-26T04:13:11.180Z,50.885715
2022-08-26T04:14:11.176Z,50.885696
2022-08-26T04:15:11.285Z,50.885662
2022-08-26T04:16:11.773Z,50.885624
2022-08-26T04:17:11.167Z,50.885578
2022-08-26T04:18:11.172Z,50.885628
2022-08-26T04:19:11.169Z,50.885597
2022-08-26T04:20:11.135Z,50.885662
2022-08-26T04:21:11.166Z,50.885441
2022-08-26T04:22:11.145Z,50.885593
2022-08-26T04:23:11.133Z,50.885601
2022-08-26T04:24:12.238Z,50.885632
2022-08-26T04:25:12.117Z,50.885616
2022-08-26T04:26:11.130Z,50.885578
2022-08-26T04:27:11.109Z,50.885559
2022-08-26T04:28:11.114Z,50.885563
2022-08-26T04:29:11.089Z,50.885586
2022-08-26T04:30:11.102Z,50.885540
2022-08-26T04:31:11.100Z,50.885559
2022-08-26T04:32:11.211Z,50.885559
2022-08-26T04:33:13.029Z,50.885555
2022-08-26T04:34:11.231Z,50.885548
2022-08-26T04:35:11.064Z,50.885529
2022-08-26T04:36:11.056Z,50.885597
2022-08-26T04:37:11.094Z,50.885612
2022-08-26T04:38:11.039Z,50.885662
2022-08-26T04:39:11.031Z,50.885571
2022-08-26T04:40:11.081Z,50.885548
2022-08-26T04:41:15.437Z,50.885544
2022-08-26T04:42:11.028Z,50.885601
2022-08-26T04:43:11.033Z,50.885597
2022-08-26T04:44:11.010Z,50.885597
2022-08-26T04:45:11.709Z,50.885620
2022-08-26T04:46:11.071Z,50.885311
2022-08-26T04:47:10.995Z,50.885490
2022-08-26T04:48:11.130Z,50.885574
2022-08-26T04:49:10.980Z,50.885586
2022-08-26T04:50:11.120Z,50.885670
2022-08-26T04:51:10.979Z,50.885551
2022-08-26T04:52:10.962Z,50.885521
2022-08-26T04:53:11.982Z,50.885574
2022-08-26T04:54:10.956Z,50.885532
2022-08-26T04:55:10.968Z,50.885548
2022-08-26T04:56:10.955Z,50.885582
2022-08-26T04:57:10.943Z,50.885567
2022-08-26T04:58:10.957Z,50.885624
2022-08-26T04:59:16.918Z,50.885586
2022-08-26T05:00:11.912Z,50.885567
2022-08-26T05:01:10.990Z,50.885658
2022-08-26T05:02:10.927Z,50.885586
2022-08-26T05:03:10.912Z,50.885620
2022-08-26T05:04:10.969Z,50.885609
2022-08-26T05:05:10.890Z,50.885624
2022-08-26T05:06:10.884Z,50.885616
2022-08-26T05:07:10.882Z,50.885567
2022-08-26T05:08:11.364Z,50.885704
2022-08-26T05:09:10.867Z,50.885723
2022-08-26T05:10:11.007Z,50.885651
2022-08-26T05:11:10.853Z,50.885651
2022-08-26T05:12:10.863Z,50.885635
2022-08-26T05:13:12.642Z,50.885605
2022-08-26T05:14:10.839Z,50.885414
2022-08-26T05:15:10.935Z,50.885563
2022-08-26T05:16:11.570Z,50.885586
2022-08-26T05:17:10.832Z,50.885590
2022-08-26T05:18:10.822Z,50.885536
2022-08-26T05:19:10.815Z,50.885536
2022-08-26T05:20:10.814Z,50.885559
2022-08-26T05:21:10.830Z,50.885593
2022-08-26T05:22:10.783Z,50.885624
2022-08-26T05:23:10.832Z,50.885628
2022-08-26T05:24:10.776Z,50.885597
2022-08-26T05:25:10.762Z,50.885647
2022-08-26T05:26:10.800Z,50.885574
2022-08-26T05:27:11.787Z,50.885490
2022-08-26T05:28:10.779Z,50.885475
2022-08-26T05:29:10.751Z,50.885540
2022-08-26T05:30:10.851Z,50.885555
2022-08-26T05:31:10.793Z,50.885521
2022-08-26T05:32:11.279Z,50.885513
2022-08-26T05:33:10.900Z,50.885574
2022-08-26T05:34:13.386Z,50.885498
2022-08-26T05:35:10.724Z,50.885319
2022-08-26T05:36:10.710Z,50.885387
2022-08-26T05:37:10.738Z,50.885513
2022-08-26T05:38:12.822Z,50.885471
2022-08-26T05:39:11.697Z,50.885525
2022-08-26T05:40:10.744Z,50.885399
2022-08-26T05:41:10.697Z,50.885590
2022-08-26T05:42:10.761Z,50.885551
2022-08-26T05:43:10.687Z,50.885529
2022-08-26T05:44:10.683Z,50.885578
2022-08-26T05:45:10.658Z,50.885582
2022-08-26T05:46:10.729Z,50.885483
2022-08-26T05:47:10.669Z,50.885563
2022-08-26T05:48:10.670Z,50.885574
2022-08-26T05:49:12.587Z,50.885345
2022-08-26T05:50:10.624Z,50.885468
2022-08-26T05:51:10.618Z,50.885513
2022-08-26T05:52:10.644Z,50.885536
2022-08-26T05:53:10.615Z,50.885529
2022-08-26T05:54:10.716Z,50.885635
2022-08-26T05:55:10.599Z,50.885521
2022-08-26T05:56:10.614Z,50.885632
2022-08-26T05:57:10.603Z,50.885441
2022-08-26T05:58:10.591Z,50.885418
2022-08-26T05:59:14.206Z,50.885426
2022-08-26T06:00:10.573Z,50.885567
2022-08-26T06:01:10.647Z,50.885330
2022-08-26T06:02:10.575Z,50.885445
2022-08-26T06:03:10.943Z,50.885258
2022-08-26T06:04:10.556Z,50.885368
2022-08-26T06:05:10.552Z,50.885529
2022-08-26T06:06:10.782Z,50.885460
2022-08-26T06:07:12.111Z,50.885452
2022-08-26T06:08:10.535Z,50.885586
2022-08-26T06:09:11.142Z,50.885624
2022-08-26T06:10:30.961Z,50.885586
2022-08-26T06:11:18.531Z,50.885529
2022-08-26T06:12:11.620Z,50.885574
2022-08-26T06:13:12.121Z,50.885612
2022-08-26T06:14:10.491Z,50.885590
2022-08-26T06:15:10.487Z,50.885441
2022-08-26T06:16:10.562Z,50.885487
2022-08-26T06:17:11.379Z,50.885342
2022-08-26T06:18:10.498Z,50.885441
2022-08-26T06:19:11.650Z,50.885544
2022-08-26T06:20:11.507Z,50.885578
2022-08-26T06:21:10.440Z,50.885620
2022-08-26T06:22:10.450Z,50.885616
2022-08-26T06:23:10.510Z,50.885418
2022-08-26T06:24:11.449Z,50.885662
2022-08-26T06:25:10.468Z,50.885437
2022-08-26T06:26:11.074Z,50.885406
2022-08-26T06:27:11.364Z,50.885548
2022-08-26T06:28:10.415Z,50.885521
2022-08-26T06:29:10.435Z,50.885521
2022-08-26T06:30:10.417Z,50.885521
2022-08-26T06:31:10.462Z,50.885498
2022-08-26T06:32:10.380Z,50.885780
2022-08-26T06:33:10.471Z,50.885380
2022-08-26T06:34:10.976Z,50.885563
2022-08-26T06:35:12.071Z,50.885593
2022-08-26T06:36:10.363Z,50.885536
2022-08-26T06:37:10.363Z,50.885574
2022-08-26T06:38:10.361Z,50.885628
2022-08-26T06:39:10.352Z,50.885582
2022-08-26T06:40:10.444Z,50.885666
2022-08-26T06:41:10.335Z,50.885689
2022-08-26T06:42:11.094Z,50.885700
2022-08-26T06:43:10.320Z,50.885632
2022-08-26T06:44:10.326Z,50.885670
2022-08-26T06:45:10.438Z,50.885601
2022-08-26T06:46:10.328Z,50.885601
2022-08-26T06:47:10.321Z,50.885654
2022-08-26T06:48:10.317Z,50.885643
2022-08-26T06:49:10.288Z,50.885612
2022-08-26T06:50:10.275Z,50.885601
2022-08-26T06:51:11.331Z,50.885563
2022-08-26T06:52:10.292Z,50.885574
2022-08-26T06:53:10.267Z,50.885586
2022-08-26T06:54:10.273Z,50.885651
2022-08-26T06:55:10.798Z,50.885609
2022-08-26T06:56:10.275Z,50.885624
2022-08-26T06:57:10.277Z,50.885601
2022-08-26T06:58:10.259Z,50.885643
2022-08-26T06:59:10.239Z,50.885509
2022-08-26T07:00:10.240Z,50.885612
2022-08-26T07:01:11.630Z,50.885582
2022-08-26T07:02:10.420Z,50.885647
2022-08-26T07:03:11.482Z,50.885509
2022-08-26T07:04:10.697Z,50.885571
2022-08-26T07:05:10.217Z,50.885551
2022-08-26T07:06:10.218Z,50.885490
2022-08-26T07:07:10.227Z,50.885670
2022-08-26T07:08:10.198Z,50.885513
2022-08-26T07:09:10.231Z,50.885571
2022-08-26T07:10:10.175Z,50.885532
2022-08-26T07:11:10.210Z,50.885395
2022-08-26T07:12:10.202Z,50.885517
2022-08-26T07:13:10.157Z,50.885487
2022-08-26T07:14:10.157Z,50.885605
2022-08-26T07:15:11.155Z,50.885513
2022-08-26T07:16:10.183Z,50.885632
2022-08-26T07:17:13.852Z,50.885410
2022-08-26T07:18:10.136Z,50.885475
2022-08-26T07:19:10.796Z,50.885277
2022-08-26T07:20:10.134Z,50.885223
2022-08-26T07:21:10.125Z,50.885715
2022-08-26T07:22:10.137Z,50.885696
2022-08-26T07:23:10.146Z,50.885727
2022-08-26T07:24:10.979Z,50.885666
2022-08-26T07:25:10.098Z,50.885689
2022-08-26T07:26:10.107Z,50.885689
2022-08-26T07:27:10.105Z,50.885689
2022-08-26T07:28:10.224Z,50.885693
2022-08-26T07:29:10.099Z,50.885624
2022-08-26T07:30:10.092Z,50.885574
2022-08-26T07:31:10.115Z,50.885540
2022-08-26T07:32:10.065Z,50.885620
2022-08-26T07:33:10.075Z,50.885601
2022-08-26T07:34:10.074Z,50.885651
2022-08-26T07:35:10.067Z,50.885578
2022-08-26T07:36:10.045Z,50.885632
2022-08-26T07:37:10.047Z,50.885616
2022-08-26T07:38:10.042Z,50.885609
2022-08-26T07:39:10.060Z,50.885525
2022-08-26T07:40:10.113Z,50.885559
2022-08-26T07:41:10.022Z,50.885418
2022-08-26T07:42:10.020Z,50.885426
2022-08-26T07:43:10.183Z,50.885418
2022-08-26T07:44:10.022Z,50.885368
2022-08-26T07:45:09.987Z,50.885502
2022-08-26T07:46:13.323Z,50.885609
2022-08-26T07:47:25.136Z,50.885536
2022-08-26T07:48:09.975Z,50.885601
2022-08-26T07:49:10.035Z,50.885601
2022-08-26T07:50:10.008Z,50.885521
2022-08-26T07:51:09.979Z,50.885677
2022-08-26T07:52:09.979Z,50.885647
2022-08-26T07:53:10.817Z,50.885529
2022-08-26T07:54:09.969Z,50.885468
2022-08-26T07:55:10.935Z,50.885536
2022-08-26T07:56:09.938Z,50.885639
2022-08-26T07:57:09.932Z,50.885551
2022-08-26T07:58:09.946Z,50.885468
2022-08-26T07:59:13.593Z,50.885571
2022-08-26T08:00:09.931Z,50.885593
2022-08-26T08:01:10.122Z,50.885525
2022-08-26T08:02:09.915Z,50.885571
2022-08-26T08:03:10.122Z,50.885529
2022-08-26T08:04:10.266Z,50.885529
2022-08-26T08:05:09.970Z,50.885574
2022-08-26T08:06:09.929Z,50.885658
2022-08-26T08:07:11.508Z,50.885597
2022-08-26T08:08:26.811Z,50.885586
2022-08-26T08:09:10.880Z,50.885654
2022-08-26T08:10:11.630Z,50.885582
2022-08-26T08:11:10.889Z,50.885563
2022-08-26T08:12:14.156Z,50.885536
2022-08-26T08:13:09.995Z,50.885551
2022-08-26T08:14:11.758Z,50.885506
2022-08-26T08:15:09.843Z,50.885468
2022-08-26T08:16:12.682Z,50.885521
2022-08-26T08:17:09.930Z,50.885567
2022-08-26T08:18:15.654Z,50.885605
2022-08-26T08:19:09.828Z,50.885574
2022-08-26T08:20:09.815Z,50.885628
2022-08-26T08:21:23.783Z,50.885571
2022-08-26T08:22:17.200Z,50.885601
2022-08-26T08:23:10.804Z,50.885612
2022-08-26T08:24:09.794Z,50.885609
2022-08-26T08:25:10.436Z,50.885590
2022-08-26T08:26:09.816Z,50.885563
2022-08-26T08:27:09.799Z,50.885551
2022-08-26T08:28:10.141Z,50.885540
2022-08-26T08:29:09.784Z,50.885483
2022-08-26T08:30:09.789Z,50.885597
2022-08-26T08:31:09.821Z,50.885609
2022-08-26T08:32:11.582Z,50.885517
2022-08-26T08:33:10.789Z,50.885490
2022-08-26T08:34:09.757Z,50.885490
2022-08-26T08:35:11.074Z,50.885334
2022-08-26T08:36:09.758Z,50.885300
2022-08-26T08:37:10.905Z,50.885319
2022-08-26T08:38:09.872Z,50.885414
2022-08-26T08:39:09.855Z,50.885456
2022-08-26T08:40:09.789Z,50.885326
2022-08-26T08:41:09.732Z,50.885323
2022-08-26T08:42:09.722Z,50.885361
2022-08-26T08:43:10.015Z,50.885387
2022-08-26T08:44:09.827Z,50.885597
2022-08-26T08:45:09.690Z,50.885525
2022-08-26T08:46:09.777Z,50.885658
2022-08-26T08:47:09.705Z,50.885578
2022-08-26T08:48:09.892Z,50.885586
2022-08-26T08:49:09.698Z,50.885563
2022-08-26T08:50:09.801Z,50.885483
2022-08-26T08:51:09.681Z,50.885387
2022-08-26T08:52:09.658Z,50.885338
2022-08-26T08:53:09.666Z,50.885479
2022-08-26T08:54:09.665Z,50.885567
2022-08-26T08:55:11.138Z,50.885509
2022-08-26T08:56:09.663Z,50.885479
2022-08-26T08:57:09.643Z,50.885468
2022-08-26T08:58:09.795Z,50.885506
2022-08-26T08:59:09.653Z,50.885490
2022-08-26T09:00:09.639Z,50.885490
2022-08-26T09:01:09.885Z,50.885464
2022-08-26T09:02:09.695Z,50.885483
2022-08-26T09:03:09.651Z,50.885456
2022-08-26T09:04:09.630Z,50.885498
2022-08-26T09:05:09.601Z,50.885468
2022-08-26T09:06:10.946Z,50.885429
2022-08-26T09:07:09.739Z,50.885426
2022-08-26T09:08:11.081Z,50.885452
2022-08-26T09:09:09.668Z,50.885548
2022-08-26T09:10:09.646Z,50.885506
2022-08-26T09:11:09.654Z,50.885429
2022-08-26T09:12:09.756Z,50.885475
2022-08-26T09:13:09.591Z,50.885448
2022-08-26T09:14:10.634Z,50.885448
2022-08-26T09:15:09.619Z,50.885464
2022-08-26T09:16:10.144Z,50.885410
2022-08-26T09:17:09.840Z,50.885468
2022-08-26T09:18:10.743Z,50.885525
2022-08-26T09:19:09.546Z,50.885540
2022-08-26T09:20:09.536Z,50.885540
2022-08-26T09:21:09.535Z,50.885506
2022-08-26T09:22:09.926Z,50.885475
2022-08-26T09:23:09.782Z,50.885529
2022-08-26T09:24:11.235Z,50.885521
2022-08-26T09:25:11.176Z,50.885555
2022-08-26T09:26:09.588Z,50.885574
2022-08-26T09:27:11.475Z,50.885574
2022-08-26T09:28:09.808Z,50.885525
2022-08-26T09:29:09.509Z,50.885490
2022-08-26T09:30:11.530Z,50.885540
2022-08-26T09:31:11.457Z,50.885513
2022-08-26T09:32:42.871Z,50.885551
2022-08-26T09:33:11.104Z,50.885628
2022-08-26T09:34:09.472Z,50.885597
2022-08-26T09:35:09.454Z,50.885620
2022-08-26T09:36:09.459Z,50.885571
2022-08-26T09:37:09.448Z,50.885620
2022-08-26T09:38:12.043Z,50.885643
2022-08-26T09:39:09.559Z,50.885620
2022-08-26T09:40:09.446Z,50.885670
2022-08-26T09:41:09.419Z,50.885544
2022-08-26T09:42:09.680Z,50.885559
2022-08-26T09:43:09.414Z,50.885632
2022-08-26T09:44:09.430Z,50.885689
2022-08-26T09:45:10.392Z,50.885674
2022-08-26T09:46:09.454Z,50.885777
2022-08-26T09:47:09.409Z,50.885746
2022-08-26T09:48:09.486Z,50.885723
2022-08-26T09:49:09.399Z,50.885643
2022-08-26T09:50:09.794Z,50.885715
2022-08-26T09:51:09.371Z,50.885624
2022-08-26T09:52:09.373Z,50.885582
2022-08-26T09:53:10.007Z,50.885643
2022-08-26T09:54:09.362Z,50.885597
2022-08-26T09:55:09.354Z,50.885651
2022-08-26T09:56:09.350Z,50.885620
2022-08-26T09:57:09.351Z,50.885719
2022-08-26T09:58:09.432Z,50.885632
2022-08-26T09:59:10.892Z,50.885544
2022-08-26T10:00:09.329Z,50.885517
2022-08-26T10:01:09.401Z,50.885643
2022-08-26T10:02:12.263Z,50.885563
2022-08-26T10:03:09.645Z,50.885483
2022-08-26T10:04:09.332Z,50.885506
2022-08-26T10:05:09.871Z,50.885601
2022-08-26T10:06:09.318Z,50.885620
2022-08-26T10:07:09.296Z,50.885529
2022-08-26T10:08:09.302Z,50.885521
2022-08-26T10:09:09.785Z,50.885456
2022-08-26T10:10:09.278Z,50.885513
2022-08-26T10:11:09.277Z,50.885559
2022-08-26T10:12:09.381Z,50.885624
2022-08-26T10:13:09.449Z,50.885567
2022-08-26T10:14:09.249Z,50.885380
2022-08-26T10:15:09.263Z,50.885479
2022-08-26T10:16:10.729Z,50.885574
2022-08-26T10:17:09.353Z,50.885578
2022-08-26T10:18:09.487Z,50.885612
2022-08-26T10:19:09.224Z,50.885639
2022-08-26T10:20:22.730Z,50.885662
2022-08-26T10:21:09.237Z,50.885719
2022-08-26T10:22:09.225Z,50.885670
2022-08-26T10:23:09.331Z,50.885700
2022-08-26T10:24:11.413Z,50.885509
2022-08-26T10:25:09.184Z,50.885445
2022-08-26T10:26:09.194Z,50.885529
2022-08-26T10:27:09.188Z,50.885544
2022-08-26T10:28:09.474Z,50.885567
2022-08-26T10:29:09.204Z,50.885498
2022-08-26T10:30:09.165Z,50.885586
2022-08-26T10:31:09.156Z,50.885529
2022-08-26T10:32:09.199Z,50.885490
2022-08-26T10:33:09.279Z,50.885406
2022-08-26T10:34:09.186Z,50.885460
2022-08-26T10:35:09.157Z,50.885250
2022-08-26T10:36:09.143Z,50.885426
2022-08-26T10:37:16.002Z,50.885433
2022-08-26T10:38:10.449Z,50.885700
2022-08-26T10:39:09.158Z,50.885880
2022-08-26T10:40:09.158Z,50.885757
2022-08-26T10:41:10.364Z,50.885887
2022-08-26T10:42:09.106Z,50.885815
2022-08-26T10:43:11.407Z,50.885845
2022-08-26T10:44:10.120Z,50.885777
2022-08-26T10:45:11.895Z,50.885712
2022-08-26T10:46:09.131Z,50.885529
2022-08-26T10:47:09.086Z,50.885529
2022-08-26T10:48:09.256Z,50.885578
2022-08-26T10:49:09.075Z,50.885494
2022-08-26T10:50:09.083Z,50.885639
2022-08-26T10:51:09.072Z,50.885586
2022-08-26T10:52:15.162Z,50.885662
2022-08-26T10:53:10.044Z,50.885517
2022-08-26T10:54:09.065Z,50.885319
2022-08-26T10:55:09.147Z,50.885429
2022-08-26T10:56:18.644Z,50.885532
2022-08-26T10:57:10.025Z,50.885578
2022-08-26T10:58:09.272Z,50.885544
2022-08-26T10:59:10.376Z,50.885677
2022-08-26T11:00:09.008Z,50.885525
2022-08-26T11:01:10.199Z,50.885509
2022-08-26T11:02:09.000Z,50.885551
2022-08-26T11:03:09.556Z,50.885612
2022-08-26T11:04:09.059Z,50.885670
2022-08-26T11:05:09.004Z,50.885574
2022-08-26T11:06:09.007Z,50.885456
2022-08-26T11:07:08.976Z,50.885548
2022-08-26T11:08:09.171Z,50.885536
2022-08-26T11:09:08.962Z,50.885387
2022-08-26T11:10:09.986Z,50.885380
2022-08-26T11:11:08.960Z,50.885563
2022-08-26T11:12:10.173Z,50.885582
2022-08-26T11:13:09.085Z,50.885635
2022-08-26T11:14:08.960Z,50.885590
2022-08-26T11:15:08.936Z,50.885628
2022-08-26T11:16:08.994Z,50.885746
2022-08-26T11:17:08.959Z,50.885956
2022-08-26T11:18:08.973Z,50.885593
2022-08-26T11:19:08.919Z,50.885586
2022-08-26T11:20:13.466Z,50.885468
2022-08-26T11:21:10.341Z,50.885616
2022-08-26T11:22:08.916Z,50.885590
2022-08-26T11:23:08.937Z,50.885517
2022-08-26T11:24:08.893Z,50.885502